Airfield :
LOGIN :

Register | Disclaimer

   EN    FR    IT 

 










Legend :    VFR   Marginal VFR   IFR   Intensive IFR   Very Intensive IFR
Visi :
Ceiling :
>= 8 km
>= 3000ft
5 to 8 km
1000 to 3000 ft
1500m to 5 km
500 to 1000 ft
800 to 1500m
200 to 500 ft
< 800m
< 200 ft
Symbols :   Thunderstorms  Fog  Heavy snow  Heavy precipitations  Wind > 20 kt
SIGMETs :     Misc.  Thunderstorms  Icing  Turbulence  Mountain Waves  Volcanic Ashes






- Airport Elevation : 459 ft
- IATA code : CER


LFRC - Cherbourg / Maupertus

CURRENT METAR :
  • 231000Z AUTO 17006KT 9999 OVC042 11/08 Q1027 NOSIG

EXPIRED METARs :
  • 230930Z AUTO 17006KT 9999 OVC039 11/08 Q1027 NOSIG
  • 230900Z AUTO 17004KT 9999 FEW026 OVC040 10/08 Q1027 NOSIG
  • 230830Z AUTO 17004KT 9999 FEW026 SCT031 OVC037 10/07 Q1027 NOSIG
  • 230800Z AUTO 18004KT 9999 FEW029 OVC036 10/07 Q1026 NOSIG
  • 230730Z AUTO 18005KT 9999 SCT032 OVC038 09/07 Q1026 NOSIG

TAF TAF LFRC
Valid from the 23 at 09:00 until the 23 at 18:00 UTC


230800Z 2309/2318 18005KT 9999 SCT030



MET'MAP, your aeronautical weather chart ! - Copyright ORBIFLY December 2007 - Disclaimer

ORBIFLY MET'MAP TEAM :

Programming & Development : Alexandra Zaïnal
Concept & original design : Baudouin d'Aumeries
Assistance for programming : Marc-Olivier Méhu
Technical & hardware support : Manuel Goepfert

Contact : metmap@orbifly.com




SOURCES & CREDITS :

   NOAA